Terminal Aerodrome Forecast
Issued by NWS

Home | Current Version | Previous Version | Text Only | Print | Product List | Glossary On
Versions: 1 2 3 4 5 6 7 8 9 10 11 12 13 14 15 16
000
FTUS41 KBTV 270530
TAFMPV
TAF
KMPV 270530Z 2706/2806 34009KT 1 1/2SM -SN BR BKN008 OVC015
      TEMPO 2709/2712 3SM -SHSN
     FM271200 34007KT P6SM OVC015
     FM271700 34006KT P6SM OVC025
     FM280000 00000KT P6SM BKN030
     FM280300 00000KT P6SM OVC040=

USA.gov is the U.S. government's official web portal to all federal, state and local government web resources and services.